sensor_id;sensor_type;location;lat;lon;timestamp;P1;durP1;ratioP1;P2;durP2;ratioP2
12476;SDS011;6303;51.504;6.300;2022-09-01T00:00:43;2.00;;;1.90;;
12476;SDS011;6303;51.504;6.300;2022-09-01T00:03:13;3.25;;;2.10;;
12476;SDS011;6303;51.504;6.300;2022-09-01T00:05:41;1.98;;;1.88;;
12476;SDS011;6303;51.504;6.300;2022-09-01T00:08:10;2.00;;;1.90;;
12476;SDS011;6303;51.504;6.300;2022-09-01T00:10:37;2.33;;;1.92;;
12476;SDS011;6303;51.504;6.300;2022-09-01T00:13:05;2.00;;;1.90;;
12476;SDS011;6303;51.504;6.300;2022-09-01T00:15:34;2.20;;;2.10;;
12476;SDS011;6303;51.504;6.300;2022-09-01T00:18:02;2.88;;;2.13;;
12476;SDS011;6303;51.504;6.300;2022-09-01T00:20:29;2.20;;;2.10;;
12476;SDS011;6303;51.504;6.300;2022-09-01T00:22:56;2.22;;;2.13;;
12476;SDS011;6303;51.504;6.300;2022-09-01T00:25:24;2.20;;;2.00;;
12476;SDS011;6303;51.504;6.300;2022-09-01T00:27:52;6.25;;;2.30;;
12476;SDS011;6303;51.504;6.300;2022-09-01T00:30:23;4.85;;;2.40;;
12476;SDS011;6303;51.504;6.300;2022-09-01T00:32:52;5.25;;;2.58;;
12476;SDS011;6303;51.504;6.300;2022-09-01T00:35:19;7.32;;;2.50;;
12476;SDS011;6303;51.504;6.300;2022-09-01T00:37:46;5.43;;;2.22;;
12476;SDS011;6303;51.504;6.300;2022-09-01T00:40:14;5.25;;;2.13;;
12476;SDS011;6303;51.504;6.300;2022-09-01T00:42:43;3.45;;;2.10;;
12476;SDS011;6303;51.504;6.300;2022-09-01T00:45:10;3.17;;;2.03;;
12476;SDS011;6303;51.504;6.300;2022-09-01T00:47:38;2.45;;;2.00;;
12476;SDS011;6303;51.504;6.300;2022-09-01T00:50:07;3.35;;;1.80;;
12476;SDS011;6303;51.504;6.300;2022-09-01T00:52:37;4.47;;;2.13;;
12476;SDS011;6303;51.504;6.300;2022-09-01T00:55:11;2.45;;;2.10;;
12476;SDS011;6303;51.504;6.300;2022-09-01T00:57:41;2.42;;;1.90;;
12476;SDS011;6303;51.504;6.300;2022-09-01T01:00:11;2.22;;;2.00;;
12476;SDS011;6303;51.504;6.300;2022-09-01T01:02:40;2.05;;;1.90;;
12476;SDS011;6303;51.504;6.300;2022-09-01T01:05:10;3.95;;;1.98;;
12476;SDS011;6303;51.504;6.300;2022-09-01T01:07:39;3.10;;;2.05;;
12476;SDS011;6303;51.504;6.300;2022-09-01T01:10:09;2.03;;;1.92;;
12476;SDS011;6303;51.504;6.300;2022-09-01T01:12:38;2.10;;;1.90;;
12476;SDS011;6303;51.504;6.300;2022-09-01T01:15:08;1.90;;;1.80;;
12476;SDS011;6303;51.504;6.300;2022-09-01T01:17:36;2.00;;;1.88;;
12476;SDS011;6303;51.504;6.300;2022-09-01T01:20:04;1.90;;;1.80;;
12476;SDS011;6303;51.504;6.300;2022-09-01T01:22:54;4.55;;;2.15;;
12476;SDS011;6303;51.504;6.300;2022-09-01T01:25:35;2.25;;;2.08;;
12476;SDS011;6303;51.504;6.300;2022-09-01T01:28:06;1.85;;;1.75;;
12476;SDS011;6303;51.504;6.300;2022-09-01T01:30:35;1.90;;;1.80;;
12476;SDS011;6303;51.504;6.300;2022-09-01T01:33:04;3.13;;;2.00;;
12476;SDS011;6303;51.504;6.300;2022-09-01T01:35:32;2.13;;;2.03;;
12476;SDS011;6303;51.504;6.300;2022-09-01T01:38:00;2.28;;;1.80;;
12476;SDS011;6303;51.504;6.300;2022-09-01T01:40:28;2.00;;;1.90;;
12476;SDS011;6303;51.504;6.300;2022-09-01T01:42:56;1.90;;;1.80;;
12476;SDS011;6303;51.504;6.300;2022-09-01T01:45:27;1.88;;;1.77;;
12476;SDS011;6303;51.504;6.300;2022-09-01T01:47:56;2.13;;;1.90;;
12476;SDS011;6303;51.504;6.300;2022-09-01T01:50:24;2.55;;;2.35;;
12476;SDS011;6303;51.504;6.300;2022-09-01T01:52:54;1.90;;;1.80;;
12476;SDS011;6303;51.504;6.300;2022-09-01T01:55:24;2.55;;;1.90;;
12476;SDS011;6303;51.504;6.300;2022-09-01T01:57:54;1.98;;;1.80;;
12476;SDS011;6303;51.504;6.300;2022-09-01T02:00:24;2.28;;;1.80;;
12476;SDS011;6303;51.504;6.300;2022-09-01T02:02:54;2.15;;;2.05;;
12476;SDS011;6303;51.504;6.300;2022-09-01T02:05:22;2.20;;;2.10;;
12476;SDS011;6303;51.504;6.300;2022-09-01T02:07:52;1.83;;;1.73;;
12476;SDS011;6303;51.504;6.300;2022-09-01T02:10:24;2.50;;;2.10;;
12476;SDS011;6303;51.504;6.300;2022-09-01T02:12:57;1.90;;;1.80;;
12476;SDS011;6303;51.504;6.300;2022-09-01T02:15:27;2.25;;;2.00;;
12476;SDS011;6303;51.504;6.300;2022-09-01T02:17:56;2.10;;;2.00;;
12476;SDS011;6303;51.504;6.300;2022-09-01T02:20:25;2.10;;;1.90;;
12476;SDS011;6303;51.504;6.300;2022-09-01T02:22:53;1.95;;;1.75;;
12476;SDS011;6303;51.504;6.300;2022-09-01T02:25:20;1.90;;;1.80;;
12476;SDS011;6303;51.504;6.300;2022-09-01T02:27:49;2.22;;;2.03;;
12476;SDS011;6303;51.504;6.300;2022-09-01T02:30:19;2.08;;;1.92;;
12476;SDS011;6303;51.504;6.300;2022-09-01T02:32:46;2.10;;;2.00;;
12476;SDS011;6303;51.504;6.300;2022-09-01T02:35:13;2.03;;;1.92;;
12476;SDS011;6303;51.504;6.300;2022-09-01T02:37:41;1.88;;;1.77;;
12476;SDS011;6303;51.504;6.300;2022-09-01T02:40:09;1.85;;;1.75;;
12476;SDS011;6303;51.504;6.300;2022-09-01T02:42:37;2.00;;;1.90;;
12476;SDS011;6303;51.504;6.300;2022-09-01T02:45:08;1.98;;;1.83;;
12476;SDS011;6303;51.504;6.300;2022-09-01T02:47:43;2.00;;;1.90;;
12476;SDS011;6303;51.504;6.300;2022-09-01T02:50:11;2.10;;;2.00;;
12476;SDS011;6303;51.504;6.300;2022-09-01T02:52:42;1.95;;;1.80;;
12476;SDS011;6303;51.504;6.300;2022-09-01T02:55:12;1.98;;;1.88;;
12476;SDS011;6303;51.504;6.300;2022-09-01T02:57:46;2.10;;;2.00;;
12476;SDS011;6303;51.504;6.300;2022-09-01T03:00:16;2.28;;;2.05;;
12476;SDS011;6303;51.504;6.300;2022-09-01T03:02:49;2.10;;;2.00;;
12476;SDS011;6303;51.504;6.300;2022-09-01T03:05:18;3.80;;;1.85;;
12476;SDS011;6303;51.504;6.300;2022-09-01T03:07:52;1.90;;;1.80;;
12476;SDS011;6303;51.504;6.300;2022-09-01T03:10:24;2.28;;;2.00;;
12476;SDS011;6303;51.504;6.300;2022-09-01T03:12:56;2.35;;;1.83;;
12476;SDS011;6303;51.504;6.300;2022-09-01T03:15:25;2.05;;;1.95;;
12476;SDS011;6303;51.504;6.300;2022-09-01T03:17:54;2.33;;;1.75;;
12476;SDS011;6303;51.504;6.300;2022-09-01T03:20:23;1.80;;;1.70;;
12476;SDS011;6303;51.504;6.300;2022-09-01T03:22:51;1.80;;;1.70;;
12476;SDS011;6303;51.504;6.300;2022-09-01T03:25:19;2.63;;;1.90;;
12476;SDS011;6303;51.504;6.300;2022-09-01T03:27:49;2.20;;;2.03;;
12476;SDS011;6303;51.504;6.300;2022-09-01T03:30:18;2.20;;;2.00;;
12476;SDS011;6303;51.504;6.300;2022-09-01T03:32:46;2.10;;;1.90;;
12476;SDS011;6303;51.504;6.300;2022-09-01T03:35:14;2.17;;;2.03;;
12476;SDS011;6303;51.504;6.300;2022-09-01T03:37:42;2.20;;;2.00;;
12476;SDS011;6303;51.504;6.300;2022-09-01T03:40:10;2.00;;;1.90;;
12476;SDS011;6303;51.504;6.300;2022-09-01T03:42:40;1.98;;;1.85;;
12476;SDS011;6303;51.504;6.300;2022-09-01T03:45:08;2.28;;;2.08;;
12476;SDS011;6303;51.504;6.300;2022-09-01T03:47:38;2.53;;;2.00;;
12476;SDS011;6303;51.504;6.300;2022-09-01T03:50:07;2.28;;;2.08;;
12476;SDS011;6303;51.504;6.300;2022-09-01T03:52:39;2.22;;;2.03;;
12476;SDS011;6303;51.504;6.300;2022-09-01T03:55:08;2.40;;;2.20;;
12476;SDS011;6303;51.504;6.300;2022-09-01T03:57:35;3.17;;;2.10;;
12476;SDS011;6303;51.504;6.300;2022-09-01T04:00:07;2.30;;;2.10;;
12476;SDS011;6303;51.504;6.300;2022-09-01T04:02:45;2.22;;;2.13;;
12476;SDS011;6303;51.504;6.300;2022-09-01T04:05:15;2.85;;;2.20;;
12476;SDS011;6303;51.504;6.300;2022-09-01T04:07:46;2.40;;;2.20;;
12476;SDS011;6303;51.504;6.300;2022-09-01T04:10:14;2.42;;;2.15;;
12476;SDS011;6303;51.504;6.300;2022-09-01T04:12:43;2.25;;;2.08;;
12476;SDS011;6303;51.504;6.300;2022-09-01T04:15:10;2.38;;;2.17;;
12476;SDS011;6303;51.504;6.300;2022-09-01T04:17:38;2.35;;;2.20;;
12476;SDS011;6303;51.504;6.300;2022-09-01T04:20:23;2.20;;;2.00;;
12476;SDS011;6303;51.504;6.300;2022-09-01T04:22:52;2.50;;;2.30;;
12476;SDS011;6303;51.504;6.300;2022-09-01T04:25:20;2.40;;;2.20;;
12476;SDS011;6303;51.504;6.300;2022-09-01T04:27:49;2.97;;;2.40;;
12476;SDS011;6303;51.504;6.300;2022-09-01T04:30:21;6.47;;;2.55;;
12476;SDS011;6303;51.504;6.300;2022-09-01T04:32:57;6.15;;;2.50;;
12476;SDS011;6303;51.504;6.300;2022-09-01T04:35:24;4.57;;;2.42;;
12476;SDS011;6303;51.504;6.300;2022-09-01T04:37:56;5.65;;;2.75;;
12476;SDS011;6303;51.504;6.300;2022-09-01T04:40:23;4.05;;;2.70;;
12476;SDS011;6303;51.504;6.300;2022-09-01T04:42:52;4.40;;;2.63;;
12476;SDS011;6303;51.504;6.300;2022-09-01T04:45:19;3.85;;;2.40;;
12476;SDS011;6303;51.504;6.300;2022-09-01T04:47:53;2.47;;;2.25;;
12476;SDS011;6303;51.504;6.300;2022-09-01T04:50:20;2.80;;;2.50;;
12476;SDS011;6303;51.504;6.300;2022-09-01T04:53:11;2.80;;;2.50;;
12476;SDS011;6303;51.504;6.300;2022-09-01T04:55:42;4.30;;;2.70;;
12476;SDS011;6303;51.504;6.300;2022-09-01T04:58:11;3.83;;;2.50;;
12476;SDS011;6303;51.504;6.300;2022-09-01T05:00:42;3.95;;;2.33;;
12476;SDS011;6303;51.504;6.300;2022-09-01T05:03:12;3.72;;;2.45;;
12476;SDS011;6303;51.504;6.300;2022-09-01T05:05:56;3.60;;;2.50;;
12476;SDS011;6303;51.504;6.300;2022-09-01T05:08:30;3.08;;;2.65;;
12476;SDS011;6303;51.504;6.300;2022-09-01T05:11:03;3.10;;;2.80;;
12476;SDS011;6303;51.504;6.300;2022-09-01T05:13:43;3.80;;;2.78;;
12476;SDS011;6303;51.504;6.300;2022-09-01T05:16:12;4.22;;;3.10;;
12476;SDS011;6303;51.504;6.300;2022-09-01T05:18:44;3.17;;;2.88;;
12476;SDS011;6303;51.504;6.300;2022-09-01T05:21:14;5.32;;;3.45;;
12476;SDS011;6303;51.504;6.300;2022-09-01T05:23:45;4.28;;;3.30;;
12476;SDS011;6303;51.504;6.300;2022-09-01T05:26:14;4.35;;;3.35;;
12476;SDS011;6303;51.504;6.300;2022-09-01T05:28:43;5.85;;;3.25;;
12476;SDS011;6303;51.504;6.300;2022-09-01T05:31:12;3.50;;;3.20;;
12476;SDS011;6303;51.504;6.300;2022-09-01T05:33:44;4.63;;;3.28;;
12476;SDS011;6303;51.504;6.300;2022-09-01T05:36:15;5.95;;;3.05;;
12476;SDS011;6303;51.504;6.300;2022-09-01T05:38:46;4.47;;;2.80;;
12476;SDS011;6303;51.504;6.300;2022-09-01T05:41:16;11.35;;;3.70;;
12476;SDS011;6303;51.504;6.300;2022-09-01T05:43:46;24.35;;;6.18;;
12476;SDS011;6303;51.504;6.300;2022-09-01T05:46:17;16.95;;;5.80;;
12476;SDS011;6303;51.504;6.300;2022-09-01T05:48:46;14.30;;;5.43;;
12476;SDS011;6303;51.504;6.300;2022-09-01T05:51:16;13.65;;;5.03;;
12476;SDS011;6303;51.504;6.300;2022-09-01T05:53:47;10.70;;;4.25;;
12476;SDS011;6303;51.504;6.300;2022-09-01T05:56:16;10.80;;;4.20;;
12476;SDS011;6303;51.504;6.300;2022-09-01T05:58:44;7.10;;;3.60;;
12476;SDS011;6303;51.504;6.300;2022-09-01T06:01:16;7.07;;;3.20;;
12476;SDS011;6303;51.504;6.300;2022-09-01T06:03:48;7.03;;;3.30;;
12476;SDS011;6303;51.504;6.300;2022-09-01T06:06:21;8.13;;;3.55;;
12476;SDS011;6303;51.504;6.300;2022-09-01T06:08:52;6.55;;;2.97;;
12476;SDS011;6303;51.504;6.300;2022-09-01T06:11:23;7.95;;;3.20;;
12476;SDS011;6303;51.504;6.300;2022-09-01T06:13:51;4.90;;;3.10;;
12476;SDS011;6303;51.504;6.300;2022-09-01T06:16:21;6.03;;;2.80;;
12476;SDS011;6303;51.504;6.300;2022-09-01T06:18:51;6.68;;;2.72;;
12476;SDS011;6303;51.504;6.300;2022-09-01T06:21:19;5.22;;;2.95;;
12476;SDS011;6303;51.504;6.300;2022-09-01T06:23:49;4.30;;;2.85;;
12476;SDS011;6303;51.504;6.300;2022-09-01T06:26:21;5.53;;;3.10;;
12476;SDS011;6303;51.504;6.300;2022-09-01T06:28:55;4.25;;;2.80;;
12476;SDS011;6303;51.504;6.300;2022-09-01T06:31:27;4.78;;;2.63;;
12476;SDS011;6303;51.504;6.300;2022-09-01T06:34:04;6.13;;;2.63;;
12476;SDS011;6303;51.504;6.300;2022-09-01T06:36:34;5.22;;;2.53;;
12476;SDS011;6303;51.504;6.300;2022-09-01T06:39:05;5.53;;;2.42;;
12476;SDS011;6303;51.504;6.300;2022-09-01T06:41:34;5.07;;;2.60;;
12476;SDS011;6303;51.504;6.300;2022-09-01T06:44:07;4.25;;;2.53;;
12476;SDS011;6303;51.504;6.300;2022-09-01T06:46:42;3.13;;;2.25;;
12476;SDS011;6303;51.504;6.300;2022-09-01T06:49:09;3.90;;;2.50;;
12476;SDS011;6303;51.504;6.300;2022-09-01T06:51:37;3.55;;;2.58;;
12476;SDS011;6303;51.504;6.300;2022-09-01T06:54:04;2.63;;;2.40;;
12476;SDS011;6303;51.504;6.300;2022-09-01T06:56:32;3.08;;;2.38;;
12476;SDS011;6303;51.504;6.300;2022-09-01T06:59:01;4.10;;;2.30;;
12476;SDS011;6303;51.504;6.300;2022-09-01T07:01:30;3.30;;;2.22;;
12476;SDS011;6303;51.504;6.300;2022-09-01T07:03:58;3.67;;;2.25;;
12476;SDS011;6303;51.504;6.300;2022-09-01T07:06:31;2.85;;;2.13;;
12476;SDS011;6303;51.504;6.300;2022-09-01T07:09:20;2.42;;;2.22;;
12476;SDS011;6303;51.504;6.300;2022-09-01T07:12:13;4.22;;;2.30;;
12476;SDS011;6303;51.504;6.300;2022-09-01T07:14:44;4.07;;;2.40;;
12476;SDS011;6303;51.504;6.300;2022-09-01T07:17:12;4.20;;;2.53;;
12476;SDS011;6303;51.504;6.300;2022-09-01T07:19:41;3.60;;;2.17;;
12476;SDS011;6303;51.504;6.300;2022-09-01T07:22:08;3.00;;;2.50;;
12476;SDS011;6303;51.504;6.300;2022-09-01T07:24:41;2.58;;;2.30;;
12476;SDS011;6303;51.504;6.300;2022-09-01T07:27:34;2.92;;;2.22;;
12476;SDS011;6303;51.504;6.300;2022-09-01T07:30:03;2.80;;;2.20;;
12476;SDS011;6303;51.504;6.300;2022-09-01T07:32:33;2.60;;;2.40;;
12476;SDS011;6303;51.504;6.300;2022-09-01T07:35:01;3.55;;;2.60;;
12476;SDS011;6303;51.504;6.300;2022-09-01T07:37:30;4.03;;;2.28;;
12476;SDS011;6303;51.504;6.300;2022-09-01T07:40:02;3.22;;;2.35;;
12476;SDS011;6303;51.504;6.300;2022-09-01T07:42:54;3.70;;;2.40;;
12476;SDS011;6303;51.504;6.300;2022-09-01T07:45:48;2.58;;;2.35;;
12476;SDS011;6303;51.504;6.300;2022-09-01T07:48:17;3.47;;;2.60;;
12476;SDS011;6303;51.504;6.300;2022-09-01T07:50:48;4.47;;;2.30;;
12476;SDS011;6303;51.504;6.300;2022-09-01T07:53:18;2.50;;;2.30;;
12476;SDS011;6303;51.504;6.300;2022-09-01T07:55:47;5.93;;;2.92;;
12476;SDS011;6303;51.504;6.300;2022-09-01T07:58:18;2.75;;;2.55;;
12476;SDS011;6303;51.504;6.300;2022-09-01T08:00:51;2.75;;;2.30;;
12476;SDS011;6303;51.504;6.300;2022-09-01T08:03:20;2.47;;;2.33;;
12476;SDS011;6303;51.504;6.300;2022-09-01T08:05:49;3.33;;;2.65;;
12476;SDS011;6303;51.504;6.300;2022-09-01T08:08:22;2.78;;;2.58;;
12476;SDS011;6303;51.504;6.300;2022-09-01T08:10:50;2.83;;;2.63;;
12476;SDS011;6303;51.504;6.300;2022-09-01T08:13:18;2.75;;;2.55;;
12476;SDS011;6303;51.504;6.300;2022-09-01T08:15:45;2.92;;;2.50;;
12476;SDS011;6303;51.504;6.300;2022-09-01T08:18:12;3.03;;;2.83;;
12476;SDS011;6303;51.504;6.300;2022-09-01T08:20:41;2.90;;;2.70;;
12476;SDS011;6303;51.504;6.300;2022-09-01T08:23:31;2.83;;;2.45;;
12476;SDS011;6303;51.504;6.300;2022-09-01T08:26:03;3.33;;;2.72;;
12476;SDS011;6303;51.504;6.300;2022-09-01T08:28:33;3.72;;;2.78;;
12476;SDS011;6303;51.504;6.300;2022-09-01T08:31:04;2.85;;;2.65;;
12476;SDS011;6303;51.504;6.300;2022-09-01T08:33:32;3.50;;;2.70;;
12476;SDS011;6303;51.504;6.300;2022-09-01T08:36:00;2.92;;;2.72;;
12476;SDS011;6303;51.504;6.300;2022-09-01T08:38:28;2.72;;;2.45;;
12476;SDS011;6303;51.504;6.300;2022-09-01T08:40:56;3.03;;;2.83;;
12476;SDS011;6303;51.504;6.300;2022-09-01T08:43:33;3.00;;;2.80;;
12476;SDS011;6303;51.504;6.300;2022-09-01T08:46:14;3.10;;;2.90;;
12476;SDS011;6303;51.504;6.300;2022-09-01T08:48:46;2.78;;;2.58;;
12476;SDS011;6303;51.504;6.300;2022-09-01T08:51:19;3.67;;;2.63;;
12476;SDS011;6303;51.504;6.300;2022-09-01T08:54:00;2.83;;;2.63;;
12476;SDS011;6303;51.504;6.300;2022-09-01T08:56:32;3.25;;;3.05;;
12476;SDS011;6303;51.504;6.300;2022-09-01T08:59:03;3.42;;;3.00;;
12476;SDS011;6303;51.504;6.300;2022-09-01T09:02:05;3.17;;;2.80;;
12476;SDS011;6303;51.504;6.300;2022-09-01T09:04:51;3.30;;;2.95;;
12476;SDS011;6303;51.504;6.300;2022-09-01T09:07:28;3.33;;;2.90;;
12476;SDS011;6303;51.504;6.300;2022-09-01T09:10:10;3.00;;;2.80;;
12476;SDS011;6303;51.504;6.300;2022-09-01T09:12:50;3.13;;;2.92;;
12476;SDS011;6303;51.504;6.300;2022-09-01T09:15:27;2.97;;;2.67;;
12476;SDS011;6303;51.504;6.300;2022-09-01T09:18:05;3.08;;;2.90;;
12476;SDS011;6303;51.504;6.300;2022-09-01T09:20:39;2.90;;;2.70;;
12476;SDS011;6303;51.504;6.300;2022-09-01T09:23:10;3.08;;;2.80;;
12476;SDS011;6303;51.504;6.300;2022-09-01T09:25:42;2.92;;;2.72;;
12476;SDS011;6303;51.504;6.300;2022-09-01T09:28:09;3.22;;;3.03;;
12476;SDS011;6303;51.504;6.300;2022-09-01T09:30:37;3.75;;;2.90;;
12476;SDS011;6303;51.504;6.300;2022-09-01T09:33:05;3.00;;;2.80;;
12476;SDS011;6303;51.504;6.300;2022-09-01T09:35:35;3.20;;;3.00;;
12476;SDS011;6303;51.504;6.300;2022-09-01T09:38:15;3.30;;;3.10;;
12476;SDS011;6303;51.504;6.300;2022-09-01T09:40:57;3.63;;;3.10;;
12476;SDS011;6303;51.504;6.300;2022-09-01T09:43:26;3.25;;;3.05;;
12476;SDS011;6303;51.504;6.300;2022-09-01T09:48:49;3.13;;;2.92;;
12476;SDS011;6303;51.504;6.300;2022-09-01T09:51:33;3.30;;;3.10;;
12476;SDS011;6303;51.504;6.300;2022-09-01T09:54:09;3.70;;;2.80;;
12476;SDS011;6303;51.504;6.300;2022-09-01T09:56:41;3.00;;;2.80;;
12476;SDS011;6303;51.504;6.300;2022-09-01T10:02:12;2.83;;;2.60;;
12476;SDS011;6303;51.504;6.300;2022-09-01T10:04:49;3.08;;;2.80;;
12476;SDS011;6303;51.504;6.300;2022-09-01T10:07:25;3.08;;;2.90;;
12476;SDS011;6303;51.504;6.300;2022-09-01T10:09:55;3.00;;;2.80;;
12476;SDS011;6303;51.504;6.300;2022-09-01T10:12:24;3.08;;;2.90;;
12476;SDS011;6303;51.504;6.300;2022-09-01T10:14:53;3.10;;;2.90;;
12476;SDS011;6303;51.504;6.300;2022-09-01T10:17:27;2.90;;;2.70;;
12476;SDS011;6303;51.504;6.300;2022-09-01T10:19:58;2.90;;;2.70;;
12476;SDS011;6303;51.504;6.300;2022-09-01T10:22:30;2.90;;;2.70;;
12476;SDS011;6303;51.504;6.300;2022-09-01T10:24:58;2.78;;;2.67;;
12476;SDS011;6303;51.504;6.300;2022-09-01T10:27:26;3.05;;;2.60;;
12476;SDS011;6303;51.504;6.300;2022-09-01T10:29:56;2.72;;;2.50;;
12476;SDS011;6303;51.504;6.300;2022-09-01T10:32:32;3.95;;;2.65;;
12476;SDS011;6303;51.504;6.300;2022-09-01T10:35:02;2.83;;;2.58;;
12476;SDS011;6303;51.504;6.300;2022-09-01T10:37:30;2.85;;;2.60;;
12476;SDS011;6303;51.504;6.300;2022-09-01T10:40:10;2.75;;;2.55;;
12476;SDS011;6303;51.504;6.300;2022-09-01T10:42:42;2.65;;;2.50;;
12476;SDS011;6303;51.504;6.300;2022-09-01T10:45:18;2.60;;;2.50;;
12476;SDS011;6303;51.504;6.300;2022-09-01T10:48:04;2.70;;;2.60;;
12476;SDS011;6303;51.504;6.300;2022-09-01T10:50:50;2.53;;;2.42;;
12476;SDS011;6303;51.504;6.300;2022-09-01T10:53:36;3.03;;;2.60;;
12476;SDS011;6303;51.504;6.300;2022-09-01T10:56:06;2.85;;;2.50;;
12476;SDS011;6303;51.504;6.300;2022-09-01T10:58:44;2.72;;;2.58;;
12476;SDS011;6303;51.504;6.300;2022-09-01T11:04:21;2.50;;;2.40;;
12476;SDS011;6303;51.504;6.300;2022-09-01T11:10:08;2.58;;;2.47;;
12476;SDS011;6303;51.504;6.300;2022-09-01T11:12:57;2.60;;;2.50;;
12476;SDS011;6303;51.504;6.300;2022-09-01T11:15:39;2.70;;;2.40;;
12476;SDS011;6303;51.504;6.300;2022-09-01T11:18:08;2.70;;;2.42;;
12476;SDS011;6303;51.504;6.300;2022-09-01T11:20:40;2.88;;;2.67;;
12476;SDS011;6303;51.504;6.300;2022-09-01T11:23:10;2.45;;;2.35;;
12476;SDS011;6303;51.504;6.300;2022-09-01T11:25:40;2.90;;;2.70;;
12476;SDS011;6303;51.504;6.300;2022-09-01T11:31:13;4.35;;;2.70;;
12476;SDS011;6303;51.504;6.300;2022-09-01T11:34:09;3.20;;;2.60;;
12476;SDS011;6303;51.504;6.300;2022-09-01T11:39:39;3.00;;;2.70;;
12476;SDS011;6303;51.504;6.300;2022-09-01T11:42:14;2.60;;;2.42;;
12476;SDS011;6303;51.504;6.300;2022-09-01T11:44:46;2.75;;;2.58;;
12476;SDS011;6303;51.504;6.300;2022-09-01T11:47:17;4.03;;;2.60;;
12476;SDS011;6303;51.504;6.300;2022-09-01T11:49:51;2.60;;;2.50;;
12476;SDS011;6303;51.504;6.300;2022-09-01T11:52:22;2.50;;;2.40;;
12476;SDS011;6303;51.504;6.300;2022-09-01T11:54:51;2.55;;;2.35;;
12476;SDS011;6303;51.504;6.300;2022-09-01T11:57:23;2.63;;;2.42;;
12476;SDS011;6303;51.504;6.300;2022-09-01T11:59:55;2.70;;;2.50;;
12476;SDS011;6303;51.504;6.300;2022-09-01T12:02:25;2.88;;;2.67;;
12476;SDS011;6303;51.504;6.300;2022-09-01T12:04:53;3.13;;;2.50;;
12476;SDS011;6303;51.504;6.300;2022-09-01T12:07:26;4.32;;;2.60;;
12476;SDS011;6303;51.504;6.300;2022-09-01T12:10:13;4.63;;;2.75;;
12476;SDS011;6303;51.504;6.300;2022-09-01T12:12:43;3.15;;;2.70;;
12476;SDS011;6303;51.504;6.300;2022-09-01T12:15:16;2.95;;;2.60;;
12476;SDS011;6303;51.504;6.300;2022-09-01T12:17:45;2.88;;;2.60;;
12476;SDS011;6303;51.504;6.300;2022-09-01T12:20:20;3.08;;;2.60;;
12476;SDS011;6303;51.504;6.300;2022-09-01T12:22:51;2.75;;;2.55;;
12476;SDS011;6303;51.504;6.300;2022-09-01T12:25:19;3.15;;;2.65;;
12476;SDS011;6303;51.504;6.300;2022-09-01T12:27:48;2.95;;;2.60;;
12476;SDS011;6303;51.504;6.300;2022-09-01T12:30:15;2.70;;;2.50;;
12476;SDS011;6303;51.504;6.300;2022-09-01T12:32:51;2.83;;;2.63;;
12476;SDS011;6303;51.504;6.300;2022-09-01T12:35:20;3.08;;;2.67;;
12476;SDS011;6303;51.504;6.300;2022-09-01T12:37:48;3.88;;;2.70;;
12476;SDS011;6303;51.504;6.300;2022-09-01T12:40:21;2.70;;;2.50;;
12476;SDS011;6303;51.504;6.300;2022-09-01T12:42:50;2.70;;;2.50;;
12476;SDS011;6303;51.504;6.300;2022-09-01T12:48:04;2.63;;;2.42;;
12476;SDS011;6303;51.504;6.300;2022-09-01T12:50:39;3.30;;;2.80;;
12476;SDS011;6303;51.504;6.300;2022-09-01T12:53:16;2.80;;;2.60;;
12476;SDS011;6303;51.504;6.300;2022-09-01T12:58:46;2.70;;;2.60;;
12476;SDS011;6303;51.504;6.300;2022-09-01T13:01:26;2.80;;;2.60;;
12476;SDS011;6303;51.504;6.300;2022-09-01T13:06:52;3.25;;;2.50;;
12476;SDS011;6303;51.504;6.300;2022-09-01T13:09:22;2.85;;;2.65;;
12476;SDS011;6303;51.504;6.300;2022-09-01T13:11:49;2.78;;;2.60;;
12476;SDS011;6303;51.504;6.300;2022-09-01T13:14:16;3.22;;;2.50;;
12476;SDS011;6303;51.504;6.300;2022-09-01T13:16:44;4.38;;;2.70;;
12476;SDS011;6303;51.504;6.300;2022-09-01T13:19:11;3.65;;;2.60;;
12476;SDS011;6303;51.504;6.300;2022-09-01T13:21:38;2.92;;;2.72;;
12476;SDS011;6303;51.504;6.300;2022-09-01T13:24:05;2.55;;;2.42;;
12476;SDS011;6303;51.504;6.300;2022-09-01T13:26:35;2.78;;;2.53;;
12476;SDS011;6303;51.504;6.300;2022-09-01T13:29:02;3.05;;;2.75;;
12476;SDS011;6303;51.504;6.300;2022-09-01T13:31:29;2.67;;;2.55;;
12476;SDS011;6303;51.504;6.300;2022-09-01T13:33:56;2.70;;;2.50;;
12476;SDS011;6303;51.504;6.300;2022-09-01T13:36:24;3.33;;;2.90;;
12476;SDS011;6303;51.504;6.300;2022-09-01T13:38:51;2.90;;;2.70;;
12476;SDS011;6303;51.504;6.300;2022-09-01T13:41:18;2.85;;;2.72;;
12476;SDS011;6303;51.504;6.300;2022-09-01T13:43:46;2.95;;;2.80;;
12476;SDS011;6303;51.504;6.300;2022-09-01T13:46:13;3.22;;;3.03;;
12476;SDS011;6303;51.504;6.300;2022-09-01T13:48:41;2.92;;;2.65;;
12476;SDS011;6303;51.504;6.300;2022-09-01T13:51:08;2.97;;;2.78;;
12476;SDS011;6303;51.504;6.300;2022-09-01T13:53:35;3.05;;;2.85;;
12476;SDS011;6303;51.504;6.300;2022-09-01T13:56:03;2.92;;;2.72;;
12476;SDS011;6303;51.504;6.300;2022-09-01T13:58:30;3.50;;;2.70;;
12476;SDS011;6303;51.504;6.300;2022-09-01T14:00:58;3.60;;;2.53;;
12476;SDS011;6303;51.504;6.300;2022-09-01T14:03:26;3.53;;;2.70;;
12476;SDS011;6303;51.504;6.300;2022-09-01T14:05:53;2.75;;;2.60;;
12476;SDS011;6303;51.504;6.300;2022-09-01T14:08:22;3.08;;;2.88;;
12476;SDS011;6303;51.504;6.300;2022-09-01T14:10:50;3.47;;;2.80;;
12476;SDS011;6303;51.504;6.300;2022-09-01T14:13:18;4.85;;;2.88;;
12476;SDS011;6303;51.504;6.300;2022-09-01T14:15:48;2.88;;;2.67;;
12476;SDS011;6303;51.504;6.300;2022-09-01T14:18:19;3.38;;;3.15;;
12476;SDS011;6303;51.504;6.300;2022-09-01T14:20:47;3.00;;;2.70;;
12476;SDS011;6303;51.504;6.300;2022-09-01T14:23:16;3.58;;;2.70;;
12476;SDS011;6303;51.504;6.300;2022-09-01T14:25:45;2.92;;;2.72;;
12476;SDS011;6303;51.504;6.300;2022-09-01T14:28:14;2.90;;;2.70;;
12476;SDS011;6303;51.504;6.300;2022-09-01T14:30:41;3.38;;;3.05;;
12476;SDS011;6303;51.504;6.300;2022-09-01T14:33:10;3.13;;;2.92;;
12476;SDS011;6303;51.504;6.300;2022-09-01T14:35:39;3.13;;;2.92;;
12476;SDS011;6303;51.504;6.300;2022-09-01T14:38:08;6.38;;;3.40;;
12476;SDS011;6303;51.504;6.300;2022-09-01T14:40:38;3.97;;;3.30;;
12476;SDS011;6303;51.504;6.300;2022-09-01T14:43:06;5.90;;;3.08;;
12476;SDS011;6303;51.504;6.300;2022-09-01T14:45:36;5.10;;;2.95;;
12476;SDS011;6303;51.504;6.300;2022-09-01T14:48:03;4.22;;;3.25;;
12476;SDS011;6303;51.504;6.300;2022-09-01T14:50:33;3.28;;;2.97;;
12476;SDS011;6303;51.504;6.300;2022-09-01T14:53:06;3.20;;;2.90;;
12476;SDS011;6303;51.504;6.300;2022-09-01T14:55:33;3.13;;;2.92;;
12476;SDS011;6303;51.504;6.300;2022-09-01T14:58:00;4.57;;;3.20;;
12476;SDS011;6303;51.504;6.300;2022-09-01T15:00:28;3.85;;;3.20;;
12476;SDS011;6303;51.504;6.300;2022-09-01T15:02:56;4.07;;;3.13;;
12476;SDS011;6303;51.504;6.300;2022-09-01T15:05:23;3.38;;;3.08;;
12476;SDS011;6303;51.504;6.300;2022-09-01T15:07:51;5.22;;;3.13;;
12476;SDS011;6303;51.504;6.300;2022-09-01T15:10:21;3.55;;;3.20;;
12476;SDS011;6303;51.504;6.300;2022-09-01T15:12:49;3.78;;;2.97;;
12476;SDS011;6303;51.504;6.300;2022-09-01T15:15:16;3.40;;;3.10;;
12476;SDS011;6303;51.504;6.300;2022-09-01T15:17:43;3.55;;;3.10;;
12476;SDS011;6303;51.504;6.300;2022-09-01T15:20:11;3.35;;;3.05;;
12476;SDS011;6303;51.504;6.300;2022-09-01T15:22:55;3.20;;;2.90;;
12476;SDS011;6303;51.504;6.300;2022-09-01T15:25:24;3.92;;;2.88;;
12476;SDS011;6303;51.504;6.300;2022-09-01T15:27:51;3.22;;;3.03;;
12476;SDS011;6303;51.504;6.300;2022-09-01T15:30:18;3.20;;;2.90;;
12476;SDS011;6303;51.504;6.300;2022-09-01T15:32:46;3.25;;;3.05;;
12476;SDS011;6303;51.504;6.300;2022-09-01T15:35:15;3.83;;;3.10;;
12476;SDS011;6303;51.504;6.300;2022-09-01T15:37:44;3.40;;;3.10;;
12476;SDS011;6303;51.504;6.300;2022-09-01T15:40:13;3.10;;;2.90;;
12476;SDS011;6303;51.504;6.300;2022-09-01T15:42:41;3.58;;;2.80;;
12476;SDS011;6303;51.504;6.300;2022-09-01T15:45:10;3.42;;;3.22;;
12476;SDS011;6303;51.504;6.300;2022-09-01T15:47:39;3.28;;;2.95;;
12476;SDS011;6303;51.504;6.300;2022-09-01T15:50:08;5.43;;;3.10;;